Time;durP1;ratioP1;P1;durP2;ratioP2;P2;SDS_P1;SDS_P2;PMS_P1;PMS_P2;Temp;Humidity;BMP_temperature;BMP_pressure;BME280_temperature;BME280_humidity;BME280_pressure;Samples;Min_cycle;Max_cycle;Signal;HPM_P1;HPM_P2
2023/06/19 00:02:04;;;;;;;12.98;8.20;;;;;;;19.07;78.42;100296.84;5115972;27;20088;-67
2023/06/19 00:04:29;;;;;;;9.60;7.95;;;;;;;19.05;78.37;100293.47;5123477;27;20505;-67
2023/06/19 00:06:55;;;;;;;11.30;8.30;;;;;;;18.90;78.67;100264.63;5119535;27;20036;-67
2023/06/19 00:09:20;;;;;;;11.10;9.15;;;;;;;18.99;78.95;100298.81;5124302;27;20029;-67
2023/06/19 00:11:46;;;;;;;15.07;8.55;;;;;;;18.77;78.53;100257.09;5126884;27;20042;-67
2023/06/19 00:14:11;;;;;;;14.75;8.60;;;;;;;18.90;78.59;100292.66;5115718;27;20049;-67
2023/06/19 00:16:37;;;;;;;14.80;7.93;;;;;;;18.88;78.15;100286.56;5117479;27;20525;-67
2023/06/19 00:19:03;;;;;;;11.90;7.93;;;;;;;18.87;78.38;100295.75;5112218;27;20046;-67
2023/06/19 00:21:29;;;;;;;11.68;8.15;;;;;;;18.84;78.48;100293.41;5115529;27;20039;-68
2023/06/19 00:23:55;;;;;;;11.55;8.73;;;;;;;18.75;78.75;100282.78;5114571;27;20432;-68
2023/06/19 00:26:22;;;;;;;15.70;8.68;;;;;;;18.70;78.60;100271.66;5117841;27;20027;-68
2023/06/19 00:28:51;;;;;;;14.38;8.75;;;;;;;18.75;79.10;100288.22;5120610;27;20034;-68
2023/06/19 00:31:18;;;;;;;12.48;8.48;;;;;;;18.70;79.31;100282.53;5123645;27;20031;-68
2023/06/19 00:33:47;;;;;;;10.88;8.32;;;;;;;18.63;79.40;100277.00;5113192;27;20046;-68
2023/06/19 00:36:14;;;;;;;13.50;8.68;;;;;;;18.67;79.42;100278.28;5116923;27;20031;-68
2023/06/19 00:38:39;;;;;;;13.85;8.43;;;;;;;18.55;79.73;100265.38;5125018;27;20550;-67
2023/06/19 00:41:05;;;;;;;15.82;8.45;;;;;;;18.60;79.62;100280.06;5113811;27;20023;-68
2023/06/19 00:43:31;;;;;;;10.70;7.95;;;;;;;18.50;79.91;100262.38;5117246;27;20398;-67
2023/06/19 00:46:01;;;;;;;12.65;9.32;;;;;;;18.58;80.28;100278.59;5113774;27;20037;-68
2023/06/19 00:48:28;;;;;;;11.27;7.88;;;;;;;18.56;80.91;100275.19;5111816;27;20023;-67
2023/06/19 00:50:54;;;;;;;10.50;8.43;;;;;;;18.51;80.60;100277.66;5119284;27;20035;-68
2023/06/19 00:53:20;;;;;;;13.95;8.77;;;;;;;18.43;81.00;100264.13;5108197;28;20067;-67
2023/06/19 00:55:47;;;;;;;14.65;8.88;;;;;;;18.48;81.06;100278.03;5111613;27;20050;-68
2023/06/19 00:58:13;;;;;;;13.32;8.82;;;;;;;18.43;80.98;100275.00;5115221;27;20039;-67
2023/06/19 01:00:39;;;;;;;13.13;9.18;;;;;;;18.45;81.11;100292.81;5128274;27;20087;-67
2023/06/19 01:03:04;;;;;;;10.15;8.88;;;;;;;18.36;80.90;100277.63;5112325;27;20053;-67
2023/06/19 01:05:30;;;;;;;11.55;8.75;;;;;;;18.36;81.13;100277.63;5107755;28;20071;-67
2023/06/19 01:08:14;;;;;;;11.93;8.75;;;;;;;18.34;81.85;100276.09;5122003;27;20035;-67
2023/06/19 01:10:51;;;;;;;14.10;9.10;;;;;;;18.30;82.19;100272.91;5122525;27;20027;-68
2023/06/19 01:13:22;;;;;;;14.70;8.73;;;;;;;18.27;82.09;100272.41;5110371;27;20031;-68
2023/06/19 01:15:48;;;;;;;14.20;9.77;;;;;;;18.20;82.23;100269.63;5118538;27;20413;-67
2023/06/19 01:18:15;;;;;;;12.38;8.57;;;;;;;18.23;82.28;100277.41;5116260;27;20027;-67
2023/06/19 01:20:41;;;;;;;15.82;8.95;;;;;;;18.21;82.86;100275.91;5119846;27;20038;-67
2023/06/19 01:23:11;;;;;;;14.65;9.65;;;;;;;18.20;83.00;100277.75;5125324;27;20460;-67
2023/06/19 01:25:37;;;;;;;10.93;9.23;;;;;;;18.16;83.09;100268.31;5122737;27;20043;-67
2023/06/19 01:28:09;;;;;;;15.80;8.95;;;;;;;18.00;83.28;100242.13;5125615;27;20402;-67
2023/06/19 01:30:35;;;;;;;14.82;9.30;;;;;;;18.05;83.32;100261.44;5108168;27;20024;-67
2023/06/19 01:33:15;;;;;;;14.27;9.70;;;;;;;18.10;82.93;100269.84;5107929;28;20027;-67
2023/06/19 01:35:43;;;;;;;15.35;9.55;;;;;;;18.09;82.69;100275.50;5110152;27;20039;-66
2023/06/19 01:38:10;;;;;;;12.95;8.38;;;;;;;18.04;83.06;100272.47;5128166;27;20049;-67
2023/06/19 01:40:37;;;;;;;11.65;8.88;;;;;;;18.06;83.10;100278.59;5116121;27;20470;-67
2023/06/19 01:43:04;;;;;;;12.60;9.02;;;;;;;18.03;82.72;100268.09;5107747;28;20486;-67
2023/06/19 01:45:30;;;;;;;11.65;8.18;;;;;;;18.05;82.89;100266.88;5109871;27;20035;-67
2023/06/19 01:47:56;;;;;;;13.70;9.32;;;;;;;18.08;82.86;100268.38;5108068;28;20031;-67
2023/06/19 01:50:23;;;;;;;9.60;8.57;;;;;;;18.06;82.70;100275.88;5109937;27;20034;-67
2023/06/19 01:52:49;;;;;;;12.93;9.82;;;;;;;17.99;83.10;100264.03;5112918;27;20027;-68
2023/06/19 01:55:15;;;;;;;13.38;9.05;;;;;;;17.92;83.53;100258.50;5127882;27;20023;-67
2023/06/19 01:57:40;;;;;;;13.70;9.05;;;;;;;17.96;84.10;100259.00;5114799;27;20027;-67
2023/06/19 02:00:10;;;;;;;12.30;8.93;;;;;;;17.95;84.62;100260.84;5122680;27;20027;-67
2023/06/19 02:02:38;;;;;;;13.13;9.10;;;;;;;17.91;84.63;100264.13;5126245;27;20462;-67
2023/06/19 02:05:04;;;;;;;13.45;8.50;;;;;;;17.91;84.44;100272.25;5107205;27;20035;-67
2023/06/19 02:07:30;;;;;;;14.18;9.27;;;;;;;17.87;84.20;100269.06;5125624;27;20088;-68
2023/06/19 02:09:56;;;;;;;14.75;9.13;;;;;;;17.85;83.57;100271.13;5107804;28;20470;-66
2023/06/19 02:12:22;;;;;;;13.55;8.77;;;;;;;17.84;83.36;100265.88;5124719;27;20382;-67
2023/06/19 02:14:47;;;;;;;12.95;9.40;;;;;;;17.72;83.58;100256.47;5110063;27;20020;-67
2023/06/19 02:17:13;;;;;;;13.30;9.02;;;;;;;17.72;83.57;100257.31;5106837;28;20027;-67
2023/06/19 02:19:38;;;;;;;11.45;8.63;;;;;;;17.77;83.05;100268.47;5106347;27;20039;-67
2023/06/19 02:22:04;;;;;;;10.30;8.68;;;;;;;17.79;83.43;100277.28;5125764;27;20051;-67
2023/06/19 02:24:30;;;;;;;11.77;9.38;;;;;;;17.70;83.14;100250.38;5117630;27;20035;-67
2023/06/19 02:26:57;;;;;;;12.40;9.32;;;;;;;17.76;82.85;100268.63;5110743;27;20043;-67
2023/06/19 02:29:22;;;;;;;13.82;9.13;;;;;;;17.73;83.04;100264.44;5126934;27;20430;-67
2023/06/19 02:31:48;;;;;;;15.45;9.32;;;;;;;17.68;83.75;100268.72;5127109;27;20055;-67
2023/06/19 02:34:13;;;;;;;12.45;9.15;;;;;;;17.69;84.05;100275.81;5120730;27;20027;-67
2023/06/19 02:36:39;;;;;;;15.60;9.13;;;;;;;17.69;84.10;100267.69;5116809;27;20423;-67
2023/06/19 02:39:06;;;;;;;12.27;9.43;;;;;;;17.67;84.48;100277.91;5109212;28;20034;-67
2023/06/19 02:41:31;;;;;;;13.95;9.82;;;;;;;17.63;84.66;100274.69;5118277;28;20703;-67
2023/06/19 02:43:57;;;;;;;13.63;9.23;;;;;;;17.60;84.20;100269.63;5119371;28;20038;-67
2023/06/19 02:46:22;;;;;;;13.23;8.82;;;;;;;17.59;84.53;100281.50;5124570;27;20473;-66
2023/06/19 02:48:48;;;;;;;12.20;8.45;;;;;;;17.61;84.04;100279.44;5118442;27;20107;-67
2023/06/19 02:51:13;;;;;;;15.73;9.02;;;;;;;17.60;85.03;100279.63;5126895;27;20026;-67
2023/06/19 02:53:39;;;;;;;14.02;9.05;;;;;;;17.63;85.42;100277.41;5109228;28;20023;-67
2023/06/19 02:56:04;;;;;;;16.98;9.18;;;;;;;17.65;85.70;100277.22;5117569;28;20024;-67
2023/06/19 02:58:31;;;;;;;12.70;9.20;;;;;;;17.61;85.55;100270.47;5120338;27;20043;-67
2023/06/19 03:00:56;;;;;;;16.10;10.02;;;;;;;17.63;85.94;100280.09;5106790;28;20032;-67
2023/06/19 03:03:22;;;;;;;14.20;9.63;;;;;;;17.65;85.91;100283.50;5110505;28;20023;-67
2023/06/19 03:05:48;;;;;;;13.60;9.52;;;;;;;17.63;85.87;100284.69;5118634;27;20398;-67
2023/06/19 03:08:14;;;;;;;18.58;10.15;;;;;;;17.51;86.66;100267.16;5122875;27;20027;-67
2023/06/19 03:10:39;;;;;;;15.70;9.95;;;;;;;17.53;86.55;100270.50;5106189;28;20031;-68
2023/06/19 03:13:05;;;;;;;12.75;10.18;;;;;;;17.49;87.20;100258.34;5106506;28;20030;-68
2023/06/19 03:15:30;;;;;;;14.30;10.32;;;;;;;17.58;86.96;100285.22;5112936;28;20113;-68
2023/06/19 03:17:55;;;;;;;12.25;9.55;;;;;;;17.50;86.60;100276.28;5125897;27;20042;-68
2023/06/19 03:20:21;;;;;;;17.17;10.32;;;;;;;17.50;85.92;100279.00;5109177;28;20039;-68
2023/06/19 03:22:46;;;;;;;15.45;9.93;;;;;;;17.56;85.40;100291.84;5107670;28;20039;-68
2023/06/19 03:25:12;;;;;;;14.38;10.07;;;;;;;17.59;85.37;100292.34;5107015;28;20027;-68
2023/06/19 03:27:38;;;;;;;16.10;10.63;;;;;;;17.57;85.39;100298.97;5106159;28;20031;-69
2023/06/19 03:30:08;;;;;;;14.10;9.75;;;;;;;17.54;85.67;100291.22;5106599;28;20027;-69
2023/06/19 03:32:34;;;;;;;15.60;10.27;;;;;;;17.45;85.67;100279.53;5109006;28;20516;-68
2023/06/19 03:35:01;;;;;;;16.02;10.73;;;;;;;17.53;85.82;100295.78;5112082;28;20019;-68
2023/06/19 03:37:26;;;;;;;19.67;10.95;;;;;;;17.59;86.68;100299.63;5107246;28;20378;-68
2023/06/19 03:39:51;;;;;;;15.05;9.77;;;;;;;17.49;86.80;100288.19;5105774;28;20032;-68
2023/06/19 03:42:17;;;;;;;15.93;10.85;;;;;;;17.58;87.47;100297.94;5106853;28;20554;-68
2023/06/19 03:44:42;;;;;;;18.05;10.30;;;;;;;17.62;87.45;100304.69;5106628;28;20023;-66
2023/06/19 03:47:08;;;;;;;16.95;10.38;;;;;;;17.66;87.45;100303.31;5110000;28;20664;-69
2023/06/19 03:49:33;;;;;;;15.27;10.50;;;;;;;17.57;87.46;100282.69;5108262;28;20099;-68
2023/06/19 03:51:58;;;;;;;16.83;8.95;;;;;;;17.64;86.92;100289.09;5110781;27;20031;-68
2023/06/19 03:54:26;;;;;;;15.60;9.35;;;;;;;17.77;86.79;100302.91;5110532;27;20016;-69
2023/06/19 03:56:51;;;;;;;11.50;8.95;;;;;;;17.79;86.44;100300.84;5115236;27;20035;-68
2023/06/19 03:59:17;;;;;;;15.18;9.43;;;;;;;17.87;85.84;100308.94;5107462;27;20031;-66
2023/06/19 04:01:42;;;;;;;11.15;8.80;;;;;;;17.91;85.90;100305.69;5111843;27;20110;-67
2023/06/19 04:04:08;;;;;;;14.98;9.70;;;;;;;17.92;86.33;100299.22;5110345;27;20032;-67
2023/06/19 04:06:33;;;;;;;16.30;9.98;;;;;;;18.02;86.29;100310.66;5114540;27;20030;-67
2023/06/19 04:08:59;;;;;;;14.63;9.45;;;;;;;18.02;85.16;100288.94;5112954;27;20531;-67
2023/06/19 04:11:24;;;;;;;12.82;9.13;;;;;;;18.10;85.19;100291.56;5112093;27;20031;-67
2023/06/19 04:13:50;;;;;;;12.40;9.52;;;;;;;18.17;84.79;100285.41;5109740;27;20024;-67
2023/06/19 04:16:15;;;;;;;13.15;9.95;;;;;;;18.25;84.74;100285.34;5110099;27;20030;-68
2023/06/19 04:18:41;;;;;;;13.40;9.57;;;;;;;18.47;84.06;100298.91;5109935;27;20031;-68
2023/06/19 04:21:07;;;;;;;14.50;8.85;;;;;;;18.56;83.18;100313.22;5111047;27;20027;-67
2023/06/19 04:23:32;;;;;;;14.60;9.23;;;;;;;18.56;82.67;100291.50;5110701;27;20039;-67
2023/06/19 04:25:58;;;;;;;14.85;9.13;;;;;;;18.71;81.23;100300.50;5109230;27;20035;-67
2023/06/19 04:28:23;;;;;;;9.48;8.48;;;;;;;18.72;79.66;100294.88;5108564;28;20042;-67
2023/06/19 04:30:49;;;;;;;12.23;9.35;;;;;;;18.89;79.34;100318.13;5113848;27;20051;-67
2023/06/19 04:33:14;;;;;;;12.75;8.75;;;;;;;18.98;79.75;100321.59;5108956;27;20027;-67
2023/06/19 04:35:40;;;;;;;10.77;8.40;;;;;;;19.05;78.86;100314.34;5112081;27;20026;-67
2023/06/19 04:38:09;;;;;;;10.50;8.23;;;;;;;19.12;78.32;100318.03;5109197;27;20035;-67
2023/06/19 04:40:34;;;;;;;9.48;8.48;;;;;;;19.03;78.42;100290.09;5120479;27;20027;-66
2023/06/19 04:43:02;;;;;;;10.50;8.30;;;;;;;19.22;78.13;100310.41;5116775;27;20088;-67
2023/06/19 04:45:27;;;;;;;11.57;8.88;;;;;;;19.29;77.26;100300.50;5110619;27;20156;-67
2023/06/19 04:47:53;;;;;;;11.50;8.50;;;;;;;19.41;77.21;100312.56;5122089;27;20725;-67
2023/06/19 04:50:18;;;;;;;11.48;8.05;;;;;;;19.53;77.42;100313.75;5113612;27;20039;-67
2023/06/19 04:52:44;;;;;;;14.25;8.00;;;;;;;19.61;77.11;100313.63;5113423;27;20139;-67
2023/06/19 04:55:10;;;;;;;13.52;9.25;;;;;;;19.71;76.86;100317.72;5117983;27;20378;-67
2023/06/19 04:57:36;;;;;;;9.88;8.40;;;;;;;19.83;76.19;100310.72;5121298;27;20455;-67
2023/06/19 05:00:06;;;;;;;11.05;7.90;;;;;;;19.94;75.98;100322.97;5123167;27;20092;-67
2023/06/19 05:02:31;;;;;;;9.80;7.93;;;;;;;20.02;75.63;100318.25;5122599;27;20144;-67
2023/06/19 05:04:57;;;;;;;10.68;8.05;;;;;;;20.12;75.81;100304.34;5122737;27;20106;-66
2023/06/19 05:07:22;;;;;;;14.25;9.02;;;;;;;20.19;75.79;100303.34;5128284;27;20110;-68
2023/06/19 05:09:48;;;;;;;14.88;8.52;;;;;;;20.42;75.58;100321.34;5114306;27;20027;-67
2023/06/19 05:12:14;;;;;;;17.17;8.10;;;;;;;20.51;75.23;100314.69;5113697;27;20032;-68
2023/06/19 05:14:39;;;;;;;13.50;8.25;;;;;;;20.66;74.76;100316.28;5107183;28;20584;-68
2023/06/19 05:17:06;;;;;;;15.15;7.80;;;;;;;20.84;73.55;100313.88;5112879;27;20031;-68
2023/06/19 05:19:31;;;;;;;11.23;7.60;;;;;;;21.01;72.08;100322.59;5107703;27;20100;-68
2023/06/19 05:21:57;;;;;;;15.20;7.47;;;;;;;21.13;70.69;100329.19;5109280;27;20474;-71
2023/06/19 05:24:24;;;;;;;9.32;6.75;;;;;;;21.17;69.73;100312.19;5097497;28;20058;-71
2023/06/19 05:26:50;;;;;;;10.05;7.55;;;;;;;21.24;68.78;100301.31;5093331;28;20446;-69
2023/06/19 05:29:15;;;;;;;10.98;7.07;;;;;;;21.11;66.92;100274.81;5096456;28;20605;-71
2023/06/19 05:31:40;;;;;;;10.88;6.80;;;;;;;21.10;66.66;100264.13;5089987;28;20530;-71
2023/06/19 05:34:06;;;;;;;7.90;6.80;;;;;;;21.25;66.27;100276.56;5103686;28;20459;-69
2023/06/19 05:36:32;;;;;;;9.65;7.40;;;;;;;21.48;65.38;100309.78;5088777;28;20043;-68
2023/06/19 05:38:57;;;;;;;8.93;6.40;;;;;;;21.72;65.59;100332.97;5101410;28;20039;-68
2023/06/19 05:41:22;;;;;;;11.43;6.32;;;;;;;21.85;65.92;100330.31;5086753;28;20028;-67
2023/06/19 05:43:48;;;;;;;8.98;6.82;;;;;;;21.97;65.24;100326.78;5091777;28;20035;-66
2023/06/19 05:46:13;;;;;;;6.25;5.65;;;;;;;22.12;65.28;100323.84;5097423;28;20474;-68
2023/06/19 05:48:39;;;;;;;8.27;6.28;;;;;;;22.30;64.81;100335.00;5091606;28;20031;-68
2023/06/19 05:51:04;;;;;;;9.18;7.60;;;;;;;22.37;62.98;100321.34;5098172;28;20069;-71
2023/06/19 05:53:31;;;;;;;9.32;7.05;;;;;;;22.52;62.19;100325.56;5089631;28;20112;-68
2023/06/19 05:55:58;;;;;;;8.57;6.07;;;;;;;22.69;62.24;100329.53;5088969;28;20112;-67
2023/06/19 05:58:25;;;;;;;7.53;5.95;;;;;;;22.88;62.06;100336.88;5097450;28;20119;-68
2023/06/19 06:00:57;;;;;;;10.27;6.30;;;;;;;23.07;60.69;100336.00;5101906;28;20794;-68
2023/06/19 06:03:23;;;;;;;9.18;6.90;;;;;;;23.21;59.28;100328.59;5088609;28;20092;-69
2023/06/19 06:05:49;;;;;;;7.15;6.20;;;;;;;23.28;58.41;100313.00;5094360;28;20548;-69
2023/06/19 06:08:15;;;;;;;8.70;6.43;;;;;;;23.42;57.84;100323.69;5090959;28;20032;-67
2023/06/19 06:10:40;;;;;;;7.35;6.47;;;;;;;23.66;57.33;100330.28;5096722;28;20030;-66
2023/06/19 06:13:05;;;;;;;15.63;7.38;;;;;;;23.69;56.58;100313.41;5085897;28;20043;-69
2023/06/19 06:15:31;;;;;;;9.93;6.80;;;;;;;23.89;55.59;100333.34;5096580;28;20028;-68
2023/06/19 06:17:56;;;;;;;10.15;6.47;;;;;;;23.97;54.79;100339.44;5104971;28;20035;-68
2023/06/19 06:20:22;;;;;;;9.10;6.45;;;;;;;24.08;54.33;100346.09;5097467;28;20020;-68
2023/06/19 06:22:47;;;;;;;7.95;5.70;;;;;;;24.17;53.85;100348.34;5105985;28;20043;-68
2023/06/19 06:25:12;;;;;;;6.55;5.93;;;;;;;24.31;53.48;100357.31;5102136;28;20032;-69
2023/06/19 06:27:38;;;;;;;8.07;6.00;;;;;;;24.38;53.20;100345.22;5094440;28;20039;-67
2023/06/19 06:30:04;;;;;;;6.53;5.88;;;;;;;24.53;52.81;100349.56;5102809;28;20036;-67
2023/06/19 06:32:31;;;;;;;6.32;5.72;;;;;;;24.73;52.33;100356.56;5106469;28;20495;-68
2023/06/19 06:34:57;;;;;;;5.55;5.05;;;;;;;24.84;51.58;100363.22;5089156;28;21810;-68
2023/06/19 06:37:22;;;;;;;8.40;5.38;;;;;;;25.04;50.53;100358.38;5086048;28;20483;-68
2023/06/19 06:39:52;;;;;;;5.75;4.72;;;;;;;25.21;49.26;100356.72;5091616;28;20058;-68
2023/06/19 06:42:18;;;;;;;5.30;4.80;;;;;;;25.36;48.24;100366.28;5106418;28;20363;-68
2023/06/19 06:44:44;;;;;;;8.75;5.10;;;;;;;25.49;47.69;100355.16;5104603;28;20097;-68
2023/06/19 06:47:10;;;;;;;6.80;5.55;;;;;;;25.57;47.27;100357.56;5091610;28;20059;-68
2023/06/19 06:49:36;;;;;;;6.05;4.88;;;;;;;25.71;47.01;100361.84;5090905;28;20056;-68
2023/06/19 06:52:10;;;;;;;6.93;5.32;;;;;;;25.84;46.35;100367.16;5088657;28;20097;-68
2023/06/19 06:54:35;;;;;;;7.25;5.50;;;;;;;25.94;46.07;100359.19;5084442;28;20020;-68
2023/06/19 06:57:01;;;;;;;5.97;5.22;;;;;;;26.07;46.41;100360.94;5087643;28;20119;-68
2023/06/19 06:59:27;;;;;;;8.40;4.85;;;;;;;26.19;45.17;100359.06;5085649;28;20055;-68
2023/06/19 07:01:54;;;;;;;5.70;5.10;;;;;;;26.30;44.78;100363.75;5093689;28;20470;-68
2023/06/19 07:04:20;;;;;;;10.38;5.60;;;;;;;26.41;44.07;100352.78;5106273;28;20027;-68
2023/06/19 07:06:46;;;;;;;8.07;6.03;;;;;;;26.50;44.15;100354.09;5105382;28;20497;-68
2023/06/19 07:09:11;;;;;;;8.45;5.78;;;;;;;26.52;44.36;100342.88;5090641;28;20039;-69
2023/06/19 07:11:37;;;;;;;7.30;5.43;;;;;;;26.69;44.22;100354.88;5106004;28;20027;-69
2023/06/19 07:14:02;;;;;;;6.00;5.25;;;;;;;26.82;43.54;100349.13;5090175;28;20028;-69
2023/06/19 07:16:28;;;;;;;7.00;5.90;;;;;;;26.91;43.16;100355.13;5097913;28;20328;-69
2023/06/19 07:18:53;;;;;;;7.38;5.88;;;;;;;26.84;43.42;100316.72;5105914;28;20040;-69
2023/06/19 07:21:19;;;;;;;9.10;5.10;;;;;;;27.11;43.52;100342.66;5103995;28;20019;-69
2023/06/19 07:23:47;;;;;;;5.60;5.07;;;;;;;27.25;42.88;100354.28;5100920;28;20586;-69
2023/06/19 07:26:12;;;;;;;5.90;5.25;;;;;;;27.36;42.22;100354.28;5095376;28;20036;-69
2023/06/19 07:28:38;;;;;;;7.07;5.47;;;;;;;27.45;41.99;100350.06;5095443;28;20553;-70
2023/06/19 07:31:03;;;;;;;7.68;4.65;;;;;;;27.57;42.02;100347.28;5103016;28;20031;-69
2023/06/19 07:33:29;;;;;;;6.00;5.40;;;;;;;27.67;42.33;100350.25;5093743;28;20038;-69
2023/06/19 07:35:55;;;;;;;5.78;5.00;;;;;;;27.77;42.12;100348.53;5101490;28;20019;-69
2023/06/19 07:38:21;;;;;;;6.18;5.13;;;;;;;27.85;41.89;100341.81;5100702;28;20767;-69
2023/06/19 07:40:46;;;;;;;5.60;4.80;;;;;;;27.98;41.49;100350.63;5108172;28;20023;-69
2023/06/19 07:43:11;;;;;;;5.43;4.93;;;;;;;28.05;41.32;100342.22;5090890;28;20038;-69
2023/06/19 07:45:37;;;;;;;6.03;5.30;;;;;;;28.17;41.25;100349.34;5101350;28;20080;-69
2023/06/19 07:48:02;;;;;;;7.10;5.47;;;;;;;28.20;41.20;100340.56;5100172;28;20051;-69
2023/06/19 07:50:28;;;;;;;6.55;5.25;;;;;;;28.34;40.57;100341.91;5101422;28;20042;-69
2023/06/19 07:52:53;;;;;;;7.55;5.68;;;;;;;28.31;40.65;100323.09;5104499;28;20035;-69
2023/06/19 07:55:19;;;;;;;5.82;4.82;;;;;;;28.36;40.06;100325.09;5102776;28;20055;-69
2023/06/19 07:57:44;;;;;;;7.28;5.38;;;;;;;28.49;39.18;100341.34;5103610;28;20092;-69
2023/06/19 08:00:13;;;;;;;6.15;4.68;;;;;;;28.52;39.40;100335.34;5090095;28;20086;-69
2023/06/19 08:02:39;;;;;;;8.88;5.18;;;;;;;28.62;39.54;100345.72;5102512;28;20035;-69
2023/06/19 08:05:07;;;;;;;7.22;5.35;;;;;;;28.67;38.88;100346.66;5104570;28;20028;-70
2023/06/19 08:07:33;;;;;;;7.63;5.45;;;;;;;28.68;38.11;100344.69;5093435;28;20034;-69
2023/06/19 08:09:59;;;;;;;8.75;5.38;;;;;;;28.72;38.06;100349.47;5100397;28;20040;-69
2023/06/19 08:12:26;;;;;;;5.22;4.72;;;;;;;28.79;38.00;100341.84;5100327;28;20066;-69
2023/06/19 08:14:52;;;;;;;6.47;5.53;;;;;;;28.86;37.29;100339.78;5092785;28;20043;-69
2023/06/19 08:17:17;;;;;;;5.43;4.88;;;;;;;28.98;37.37;100346.00;5089436;28;20513;-69
2023/06/19 08:19:43;;;;;;;8.35;5.50;;;;;;;28.99;37.20;100342.19;5097447;28;20295;-69
2023/06/19 08:22:09;;;;;;;5.30;4.78;;;;;;;29.03;36.67;100335.09;5089338;28;20054;-69
2023/06/19 08:24:39;;;;;;;8.45;4.70;;;;;;;29.06;36.84;100336.50;5101633;28;20107;-69
2023/06/19 08:27:05;;;;;;;6.35;5.18;;;;;;;29.00;36.92;100324.50;5093982;27;20060;-69
2023/06/19 08:29:30;;;;;;;9.18;5.53;;;;;;;29.07;37.23;100338.16;5103969;28;20066;-69
2023/06/19 08:31:56;;;;;;;5.68;5.13;;;;;;;29.11;37.02;100333.81;5098283;28;20119;-69
2023/06/19 08:34:21;;;;;;;6.75;5.65;;;;;;;29.18;37.26;100337.22;5095977;28;20031;-70
2023/06/19 08:36:47;;;;;;;6.60;5.20;;;;;;;29.20;36.30;100329.50;5100574;28;20062;-70
2023/06/19 08:39:12;;;;;;;7.68;5.70;;;;;;;29.18;36.51;100334.47;5092613;28;20096;-69
2023/06/19 08:41:39;;;;;;;5.38;4.88;;;;;;;29.20;36.97;100332.25;5103716;28;20115;-70
2023/06/19 08:44:05;;;;;;;6.18;5.50;;;;;;;29.30;37.02;100346.25;5092197;28;20039;-68
2023/06/19 08:46:31;;;;;;;5.95;5.25;;;;;;;29.35;36.83;100333.31;5096192;28;20031;-69
2023/06/19 08:48:56;;;;;;;6.65;5.30;;;;;;;29.40;37.06;100332.56;5107962;28;20052;-69
2023/06/19 08:51:22;;;;;;;7.13;5.03;;;;;;;29.34;36.26;100315.03;5091084;28;20024;-69
2023/06/19 08:53:52;;;;;;;5.22;4.72;;;;;;;29.42;36.63;100316.53;5098308;28;20024;-68
2023/06/19 08:56:18;;;;;;;6.47;5.03;;;;;;;29.60;36.46;100328.09;5097706;28;20054;-68
2023/06/19 08:58:43;;;;;;;6.13;5.38;;;;;;;29.68;36.48;100329.59;5093384;27;20068;-69
2023/06/19 09:01:09;;;;;;;5.97;5.38;;;;;;;29.66;36.10;100321.56;5102757;28;20031;-69
2023/06/19 09:03:34;;;;;;;6.35;4.78;;;;;;;29.79;35.95;100320.34;5097266;28;20089;-69
2023/06/19 09:06:18;;;;;;;8.15;5.30;;;;;;;29.81;35.73;100316.22;5101066;28;20088;-69
2023/06/19 09:08:43;;;;;;;6.70;5.35;;;;;;;29.84;36.02;100314.84;5090131;28;20043;-69
2023/06/19 09:11:10;;;;;;;5.40;4.90;;;;;;;29.87;35.76;100314.34;5090713;28;20598;-69
2023/06/19 09:13:36;;;;;;;5.57;5.07;;;;;;;29.86;35.94;100312.69;5093327;28;20032;-69
2023/06/19 09:16:08;;;;;;;5.70;5.20;;;;;;;29.84;35.75;100318.47;5099428;28;20022;-69
2023/06/19 09:18:47;;;;;;;6.28;5.43;;;;;;;29.85;36.19;100319.28;5098732;28;20031;-69
2023/06/19 09:21:23;;;;;;;7.82;5.45;;;;;;;29.87;35.59;100312.41;5094203;28;20055;-69
2023/06/19 09:23:51;;;;;;;5.68;5.15;;;;;;;29.90;35.61;100311.91;5096217;28;20040;-69
2023/06/19 09:26:18;;;;;;;6.75;4.93;;;;;;;30.02;35.49;100314.50;5089002;28;20699;-69
2023/06/19 09:28:44;;;;;;;8.35;5.15;;;;;;;30.06;35.62;100313.72;5098495;28;20039;-69
2023/06/19 09:31:10;;;;;;;7.97;5.28;;;;;;;30.14;35.28;100316.00;5089258;28;20016;-69
2023/06/19 09:33:37;;;;;;;6.07;5.30;;;;;;;30.22;35.55;100315.56;5093318;28;20028;-69
2023/06/19 09:36:05;;;;;;;7.53;4.63;;;;;;;30.14;34.91;100299.41;5093173;28;20040;-69
2023/06/19 09:38:33;;;;;;;5.55;5.05;;;;;;;30.23;34.78;100308.09;5093163;28;20054;-70
2023/06/19 09:41:02;;;;;;;8.23;5.05;;;;;;;30.31;34.72;100307.63;5098410;28;20028;-69
2023/06/19 09:43:36;;;;;;;5.07;4.57;;;;;;;30.37;34.92;100306.56;5092174;28;20508;-69
2023/06/19 09:46:02;;;;;;;5.70;5.10;;;;;;;30.42;34.90;100298.28;5098423;28;20082;-70
2023/06/19 09:48:30;;;;;;;5.65;5.10;;;;;;;30.42;34.87;100299.16;5095547;28;20043;-70
2023/06/19 09:51:18;;;;;;;5.95;4.70;;;;;;;30.43;34.77;100303.56;5096156;28;20046;-70
2023/06/19 09:53:48;;;;;;;7.38;5.38;;;;;;;30.47;34.70;100298.34;5101931;28;20031;-70
2023/06/19 09:56:15;;;;;;;5.35;4.85;;;;;;;30.51;34.36;100302.25;5097514;28;20028;-69
2023/06/19 09:58:45;;;;;;;7.40;5.47;;;;;;;30.54;34.83;100304.50;5091581;28;20024;-69
2023/06/19 10:01:12;;;;;;;6.82;4.95;;;;;;;30.45;34.57;100286.69;5103744;28;20030;-69
2023/06/19 10:03:37;;;;;;;6.32;5.72;;;;;;;30.55;34.84;100308.91;5098461;28;20024;-70
2023/06/19 10:06:04;;;;;;;7.10;5.38;;;;;;;30.59;34.69;100304.50;5090802;28;20064;-69
2023/06/19 10:08:44;;;;;;;6.00;5.22;;;;;;;30.58;34.69;100300.09;5095376;28;20110;-70
2023/06/19 10:11:10;;;;;;;7.28;5.32;;;;;;;30.59;34.46;100293.44;5094587;28;20050;-70
2023/06/19 10:13:40;;;;;;;5.53;4.97;;;;;;;30.54;34.55;100277.63;5079524;28;20628;-70
2023/06/19 10:16:26;;;;;;;5.57;5.07;;;;;;;30.67;34.56;100295.72;5083817;28;20027;-70
2023/06/19 10:18:52;;;;;;;5.88;5.10;;;;;;;30.67;34.62;100288.22;5102023;28;20027;-69
2023/06/19 10:21:19;;;;;;;6.07;5.47;;;;;;;30.74;34.12;100290.81;5100453;28;20085;-70
2023/06/19 10:23:53;;;;;;;5.40;4.90;;;;;;;30.73;34.18;100280.84;5098791;28;20028;-69
2023/06/19 10:26:21;;;;;;;6.82;5.70;;;;;;;30.83;33.92;100282.84;5086178;28;20047;-70
2023/06/19 10:28:48;;;;;;;5.93;5.32;;;;;;;30.85;34.06;100281.47;5084143;28;20044;-70
2023/06/19 10:31:13;;;;;;;7.00;5.75;;;;;;;30.87;33.60;100275.66;5089205;28;20019;-70
2023/06/19 10:33:41;;;;;;;5.50;4.97;;;;;;;30.88;33.58;100274.56;5094475;28;20031;-71
2023/06/19 10:36:15;;;;;;;6.25;4.97;;;;;;;30.86;33.63;100274.84;5105340;28;20054;-70
2023/06/19 10:38:40;;;;;;;;;;;;;;;30.77;33.75;100270.06;5096888;28;20145;-70
2023/06/19 10:41:14;;;;;;;6.00;5.50;;;;;;;30.77;33.61;100254.28;5106602;28;19947;-70
2023/06/19 10:43:40;;;;;;;6.32;5.70;;;;;;;30.83;33.94;100271.75;5106392;28;20110;-70
2023/06/19 10:46:05;;;;;;;6.00;5.40;;;;;;;30.84;34.25;100260.41;5106306;28;20023;-70
2023/06/19 10:48:31;;;;;;;6.35;5.53;;;;;;;30.89;34.21;100262.38;5106483;28;20371;-70
2023/06/19 10:50:56;;;;;;;5.93;5.38;;;;;;;30.90;34.54;100255.72;5104246;28;20031;-70
2023/06/19 10:53:30;;;;;;;6.55;5.65;;;;;;;31.00;34.68;100259.41;5095492;28;20055;-70
2023/06/19 10:56:00;;;;;;;7.07;5.18;;;;;;;31.04;34.40;100260.53;5089642;28;20035;-70
2023/06/19 10:58:27;;;;;;;5.97;5.38;;;;;;;31.00;34.29;100256.63;5107761;28;20027;-70
2023/06/19 11:00:53;;;;;;;6.50;5.53;;;;;;;30.99;33.86;100254.97;5104182;28;20031;-70
2023/06/19 11:03:20;;;;;;;6.22;5.30;;;;;;;31.01;33.90;100251.94;5101290;28;20039;-69
2023/06/19 11:05:46;;;;;;;6.38;5.45;;;;;;;30.96;34.08;100235.25;5109888;28;20466;-69
2023/06/19 11:08:20;;;;;;;6.57;5.60;;;;;;;31.08;34.25;100241.44;5090526;28;20131;-70
2023/06/19 11:10:46;;;;;;;6.10;5.50;;;;;;;31.07;34.27;100236.97;5097059;28;20042;-70
2023/06/19 11:13:19;;;;;;;6.20;5.15;;;;;;;31.09;34.13;100249.47;5096888;28;20019;-70
2023/06/19 11:15:47;;;;;;;11.10;5.60;;;;;;;31.06;34.14;100244.47;5101881;28;20027;-70
2023/06/19 11:18:15;;;;;;;5.95;5.45;;;;;;;31.03;33.82;100233.91;5096543;28;20024;-70
2023/06/19 11:20:49;;;;;;;5.85;5.25;;;;;;;30.95;34.24;100226.09;5105001;28;20032;-70